createdAt,value
2023-04-17T00:01:06.289Z,77.92
2023-04-17T00:04:10.970Z,78.23
2023-04-17T00:07:15.705Z,76.74
2023-04-17T00:10:18.541Z,76.95
2023-04-17T00:13:21.312Z,77.02
2023-04-17T00:16:24.398Z,77.25
2023-04-17T00:19:27.199Z,76.79
2023-04-17T00:22:31.383Z,76.41
2023-04-17T00:25:34.232Z,76.68
2023-04-17T00:28:37.212Z,76.67
2023-04-17T00:31:40.285Z,76.07
2023-04-17T00:34:43.159Z,75.34
2023-04-17T00:37:48.786Z,74.38
2023-04-17T00:40:54.795Z,74.39
2023-04-17T00:43:57.552Z,74.63
2023-04-17T00:47:00.340Z,74.67
2023-04-17T00:50:04.047Z,75.87
2023-04-17T00:53:08.464Z,75.04
2023-04-17T00:56:11.932Z,75.85
2023-04-17T00:59:18.488Z,75.26
2023-04-17T01:02:21.677Z,75.74
2023-04-17T01:05:25.214Z,76.92
2023-04-17T01:08:30.723Z,75.65
2023-04-17T01:11:33.907Z,74.96
2023-04-17T01:14:36.789Z,73.97
2023-04-17T01:17:39.930Z,74.80
2023-04-17T01:20:43.274Z,75.14
2023-04-17T01:23:52.005Z,74.68
2023-04-17T01:26:56.354Z,75.26
2023-04-17T01:29:59.080Z,75.06
2023-04-17T01:33:02.109Z,75.44
2023-04-17T01:36:05.671Z,75.45
2023-04-17T01:39:08.443Z,75.70
2023-04-17T01:42:12.720Z,76.18
2023-04-17T01:45:15.550Z,75.30
2023-04-17T01:48:18.539Z,75.01
2023-04-17T01:51:21.597Z,75.79
2023-04-17T01:54:24.959Z,75.77
2023-04-17T01:57:29.347Z,75.79
2023-04-17T02:00:32.320Z,76.63
2023-04-17T02:03:35.489Z,76.39
2023-04-17T02:06:38.895Z,76.88
2023-04-17T02:09:41.683Z,75.46
2023-04-17T02:12:46.146Z,74.53
2023-04-17T02:15:49.021Z,75.08
2023-04-17T02:18:53.217Z,75.84
2023-04-17T02:21:56.226Z,75.50
2023-04-17T02:24:59.154Z,75.30
2023-04-17T02:28:03.829Z,75.01
2023-04-17T02:31:08.783Z,75.32
2023-04-17T02:34:12.746Z,75.67
2023-04-17T02:37:15.971Z,75.96
2023-04-17T02:40:18.925Z,76.96
2023-04-17T02:43:23.134Z,75.85
2023-04-17T02:46:25.930Z,76.00
2023-04-17T02:49:28.817Z,75.87
2023-04-17T02:52:32.597Z,75.76
2023-04-17T02:55:35.667Z,76.73
2023-04-17T02:58:39.891Z,74.63
2023-04-17T03:01:42.931Z,76.20
2023-04-17T03:04:45.809Z,75.67
2023-04-17T03:07:48.756Z,76.60
2023-04-17T03:10:51.505Z,76.49
2023-04-17T03:13:55.655Z,75.88
2023-04-17T03:16:58.455Z,75.27
2023-04-17T03:20:01.360Z,76.45
2023-04-17T03:23:04.096Z,76.47
2023-04-17T03:26:06.874Z,77.02
2023-04-17T03:29:11.393Z,77.30
2023-04-17T03:32:14.304Z,77.21
2023-04-17T03:35:17.210Z,77.38
2023-04-17T03:38:20.205Z,76.70
2023-04-17T03:41:22.949Z,77.43
2023-04-17T03:44:27.160Z,77.28
2023-04-17T03:47:30.523Z,77.33
2023-04-17T03:50:33.448Z,77.15
2023-04-17T03:53:36.213Z,77.59
2023-04-17T03:56:38.962Z,76.95
2023-04-17T03:59:43.199Z,77.74
2023-04-17T04:02:46.404Z,77.69
2023-04-17T04:05:49.429Z,78.16
2023-04-17T04:08:52.599Z,77.86
2023-04-17T04:11:55.627Z,78.22
2023-04-17T04:15:00.202Z,78.28
2023-04-17T04:18:03.086Z,78.61
2023-04-17T04:21:06.247Z,78.54
2023-04-17T04:24:10.055Z,77.94
2023-04-17T04:27:12.975Z,78.63
2023-04-17T04:30:17.863Z,78.30
2023-04-17T04:33:21.552Z,78.28
2023-04-17T04:36:25.112Z,77.89
2023-04-17T04:39:29.847Z,78.17
2023-04-17T04:42:32.963Z,78.39
2023-04-17T04:45:37.282Z,78.01
2023-04-17T04:48:42.053Z,77.15
2023-04-17T04:51:45.951Z,78.26
2023-04-17T04:54:48.728Z,78.09
2023-04-17T04:57:53.537Z,78.35
2023-04-17T05:00:57.789Z,77.52
2023-04-17T05:04:01.145Z,77.93
2023-04-17T05:07:05.112Z,75.52
2023-04-17T05:10:08.851Z,76.75
2023-04-17T05:13:11.658Z,75.16
2023-04-17T05:16:15.823Z,76.96
2023-04-17T05:19:18.654Z,76.29
2023-04-17T05:22:21.712Z,76.33
2023-04-17T05:25:24.492Z,76.68
2023-04-17T05:28:29.654Z,77.11
2023-04-17T05:31:33.861Z,75.92
2023-04-17T05:34:36.818Z,76.68
2023-04-17T05:37:39.730Z,75.48
2023-04-17T05:40:42.459Z,75.15
2023-04-17T05:43:45.442Z,76.77
2023-04-17T05:46:49.517Z,76.83
2023-04-17T05:49:57.449Z,76.53
2023-04-17T05:53:00.226Z,75.91
2023-04-17T05:56:04.077Z,75.97
2023-04-17T05:59:07.017Z,76.43
2023-04-17T06:02:11.538Z,76.83
2023-04-17T06:05:14.568Z,77.04
2023-04-17T06:08:17.623Z,76.90
2023-04-17T06:11:20.328Z,75.95
2023-04-17T06:14:23.147Z,76.25
2023-04-17T06:17:27.306Z,75.97
2023-04-17T06:20:30.058Z,76.04
2023-04-17T06:23:32.971Z,76.24
2023-04-17T06:26:35.737Z,75.60
2023-04-17T06:29:38.749Z,73.78
2023-04-17T06:32:44.301Z,74.06
2023-04-17T06:35:47.201Z,73.84
2023-04-17T06:38:50.221Z,73.07
2023-04-17T06:41:53.041Z,73.27
2023-04-17T06:44:56.210Z,72.64
2023-04-17T06:48:00.440Z,72.12
2023-04-17T06:51:03.411Z,71.99
2023-04-17T06:54:06.250Z,69.79
2023-04-17T06:57:10.792Z,71.15
2023-04-17T07:00:14.838Z,70.85
2023-04-17T07:03:19.049Z,70.21
2023-04-17T07:06:23.306Z,69.52
2023-04-17T07:09:27.261Z,68.60
2023-04-17T07:12:30.005Z,67.35
2023-04-17T07:15:32.808Z,64.84
2023-04-17T07:18:36.974Z,62.65
2023-04-17T07:21:39.828Z,58.08
2023-04-17T07:24:42.671Z,58.01
2023-04-17T07:27:45.386Z,58.22
2023-04-17T07:30:48.124Z,59.62
2023-04-17T07:33:52.253Z,59.46
2023-04-17T07:36:56.721Z,56.72
2023-04-17T07:39:59.439Z,55.55
2023-04-17T07:43:02.274Z,56.60
2023-04-17T07:46:05.341Z,55.70
2023-04-17T07:49:12.202Z,55.50
2023-04-17T07:52:17.776Z,54.23
2023-04-17T07:55:20.636Z,54.58
2023-04-17T07:58:24.184Z,53.19
2023-04-17T08:01:27.766Z,52.58
2023-04-17T08:04:33.009Z,51.41
2023-04-17T08:07:36.552Z,51.07
2023-04-17T08:10:39.274Z,51.28
2023-04-17T08:13:42.204Z,51.12
2023-04-17T08:16:45.146Z,50.92
2023-04-17T08:19:50.253Z,49.74
2023-04-17T08:22:53.157Z,50.27
2023-04-17T08:25:55.899Z,48.79
2023-04-17T08:29:01.501Z,51.38
2023-04-17T08:32:13.389Z,50.74
2023-04-17T08:35:19.282Z,49.16
2023-04-17T08:38:22.113Z,45.68
2023-04-17T08:41:29.377Z,47.02
2023-04-17T08:44:32.199Z,48.83
2023-04-17T08:47:35.623Z,47.49
2023-04-17T08:50:41.114Z,48.44
2023-04-17T08:53:43.953Z,47.02
2023-04-17T08:56:46.699Z,48.07
2023-04-17T08:59:49.437Z,45.64
2023-04-17T09:02:56.863Z,46.28
2023-04-17T09:06:01.244Z,44.59
2023-04-17T09:09:04.512Z,42.98
2023-04-17T09:12:10.376Z,42.40
2023-04-17T09:15:17.377Z,42.31
2023-04-17T09:18:25.749Z,41.21
2023-04-17T09:21:29.977Z,39.36
2023-04-17T09:24:37.675Z,40.41
2023-04-17T09:27:40.661Z,37.73
2023-04-17T09:30:43.616Z,37.75
2023-04-17T09:33:57.563Z,39.76
2023-04-17T09:37:01.734Z,38.94
2023-04-17T09:40:08.049Z,40.28
2023-04-17T09:43:11.650Z,40.04
2023-04-17T09:46:31.184Z,38.46
2023-04-17T09:49:40.618Z,38.46
2023-04-17T09:52:45.034Z,38.41
2023-04-17T09:55:49.223Z,37.81
2023-04-17T09:58:54.329Z,35.25
2023-04-17T10:01:57.233Z,36.19
2023-04-17T10:05:01.076Z,36.95
2023-04-17T10:08:05.771Z,37.05
2023-04-17T10:11:09.486Z,36.23
2023-04-17T10:14:18.116Z,35.40
2023-04-17T10:17:24.529Z,35.11
2023-04-17T10:20:35.500Z,34.38
2023-04-17T10:23:41.082Z,33.60
2023-04-17T10:26:43.947Z,35.04
2023-04-17T10:29:56.920Z,36.80
2023-04-17T10:33:22.770Z,36.33
2023-04-17T10:36:58.640Z,33.77
2023-04-17T10:40:03.754Z,34.68
2023-04-17T10:43:12.327Z,35.93
2023-04-17T10:46:16.241Z,36.70
2023-04-17T10:49:21.123Z,37.50
2023-04-17T10:52:40.808Z,35.48
2023-04-17T10:55:50.661Z,34.63
2023-04-17T10:58:58.824Z,35.30
2023-04-17T11:02:04.620Z,36.22
2023-04-17T11:05:08.541Z,39.60
2023-04-17T11:08:12.205Z,39.90
2023-04-17T11:11:23.577Z,40.77
2023-04-17T11:14:42.587Z,43.24
2023-04-17T11:17:49.326Z,40.84
2023-04-17T11:20:53.513Z,39.87
2023-04-17T11:23:56.362Z,40.36
2023-04-17T11:27:01.784Z,39.07
2023-04-17T11:30:04.888Z,39.53
2023-04-17T11:33:09.163Z,40.25
2023-04-17T11:36:12.228Z,40.43
2023-04-17T11:39:16.092Z,38.87
2023-04-17T11:42:28.092Z,37.28
2023-04-17T11:45:32.436Z,37.47
2023-04-17T11:48:35.958Z,35.46
2023-04-17T11:51:38.826Z,36.95
2023-04-17T11:54:41.576Z,37.78
2023-04-17T11:57:45.687Z,37.01
2023-04-17T12:01:05.433Z,37.30
2023-04-17T12:04:21.711Z,37.48
2023-04-17T12:07:25.569Z,37.42
2023-04-17T12:10:40.741Z,36.85
2023-04-17T12:13:44.929Z,38.41
2023-04-17T12:16:50.213Z,38.34
2023-04-17T12:19:53.165Z,39.89
2023-04-17T12:22:55.881Z,39.21
2023-04-17T12:25:58.706Z,39.72
2023-04-17T12:29:03.423Z,40.66
2023-04-17T12:32:06.647Z,42.50
2023-04-17T12:35:10.344Z,44.07
2023-04-17T12:38:13.759Z,45.76
2023-04-17T12:41:16.644Z,46.79
2023-04-17T12:44:20.695Z,47.85
2023-04-17T12:47:23.545Z,49.54
2023-04-17T12:50:26.379Z,50.63
2023-04-17T12:53:29.921Z,51.95
2023-04-17T12:56:32.966Z,51.06
2023-04-17T12:59:37.012Z,54.12
2023-04-17T13:02:39.875Z,54.26
2023-04-17T13:05:42.997Z,55.35
2023-04-17T13:08:45.858Z,56.24
2023-04-17T13:11:48.729Z,54.83
2023-04-17T13:14:52.999Z,54.49
2023-04-17T13:17:55.972Z,55.65
2023-04-17T13:20:58.871Z,54.21
2023-04-17T13:24:01.598Z,54.37
2023-04-17T13:27:05.122Z,56.41
2023-04-17T13:30:10.802Z,54.87
2023-04-17T13:33:13.500Z,53.54
2023-04-17T13:39:36.793Z,53.29
2023-04-17T13:42:39.679Z,52.49
2023-04-17T13:45:43.758Z,53.26
2023-04-17T13:48:46.514Z,53.98
2023-04-17T13:51:49.333Z,54.51
2023-04-17T13:54:51.988Z,56.00
2023-04-17T13:57:55.082Z,55.69
2023-04-17T14:00:59.163Z,55.12
2023-04-17T14:04:02.130Z,55.37
2023-04-17T14:07:05.465Z,56.12
2023-04-17T14:10:09.896Z,56.19
2023-04-17T14:13:12.693Z,57.10
2023-04-17T14:16:18.670Z,56.96
2023-04-17T14:19:21.581Z,58.70
2023-04-17T14:22:24.416Z,58.14
2023-04-17T14:25:27.199Z,58.92
2023-04-17T14:28:30.028Z,60.14
2023-04-17T14:31:34.260Z,60.35
2023-04-17T14:34:37.208Z,60.90
2023-04-17T14:37:39.915Z,61.04
2023-04-17T14:40:42.661Z,61.74
2023-04-17T14:43:45.919Z,64.34
2023-04-17T14:46:50.473Z,62.28
2023-04-17T14:49:53.284Z,62.87
2023-04-17T14:52:56.776Z,63.88
2023-04-17T14:56:00.250Z,63.32
2023-04-17T14:59:03.104Z,63.76
2023-04-17T15:02:07.495Z,65.51
2023-04-17T15:05:11.128Z,65.14
2023-04-17T15:08:13.825Z,65.50
2023-04-17T15:11:16.980Z,67.04
2023-04-17T15:14:20.221Z,66.87
2023-04-17T15:17:24.308Z,66.93
2023-04-17T15:20:28.525Z,66.86
2023-04-17T15:23:31.406Z,66.40
2023-04-17T15:26:34.372Z,66.01
2023-04-17T15:29:37.119Z,67.26
2023-04-17T15:32:41.691Z,69.32
2023-04-17T15:35:44.809Z,68.28
2023-04-17T15:38:47.653Z,68.47
2023-04-17T15:41:50.850Z,68.98
2023-04-17T15:44:55.534Z,68.26
2023-04-17T15:48:00.840Z,70.72
2023-04-17T15:51:04.335Z,68.88
2023-04-17T15:54:07.314Z,69.23
2023-04-17T15:57:10.070Z,69.19
2023-04-17T16:00:14.076Z,69.81
2023-04-17T16:03:18.398Z,72.03
2023-04-17T16:06:21.574Z,72.14
2023-04-17T16:09:24.828Z,71.00
2023-04-17T16:12:28.165Z,71.05
2023-04-17T16:15:31.870Z,70.00
2023-04-17T16:18:36.430Z,70.90
2023-04-17T16:21:39.611Z,71.23
2023-04-17T16:24:42.402Z,71.25
2023-04-17T16:27:45.196Z,72.94
2023-04-17T16:30:49.152Z,73.10
2023-04-17T16:33:53.428Z,73.22
2023-04-17T16:36:56.282Z,73.81
2023-04-17T16:40:04.315Z,73.84
2023-04-17T16:43:07.572Z,73.39
2023-04-17T16:46:20.733Z,73.24
2023-04-17T16:49:26.928Z,73.37
2023-04-17T16:52:29.924Z,74.23
2023-04-17T16:55:32.757Z,74.56
2023-04-17T16:58:35.527Z,74.39
2023-04-17T17:01:38.370Z,75.80
2023-04-17T17:04:42.611Z,75.98
2023-04-17T17:07:45.579Z,75.13
2023-04-17T17:10:49.820Z,76.26
2023-04-17T17:13:54.027Z,76.71
2023-04-17T17:16:56.811Z,76.92
2023-04-17T17:20:00.991Z,75.75
2023-04-17T17:23:03.835Z,76.03
2023-04-17T17:26:07.125Z,75.96
2023-04-17T17:29:09.814Z,76.70
2023-04-17T17:32:14.186Z,76.43
2023-04-17T17:35:18.351Z,77.53
2023-04-17T17:38:21.076Z,77.81
2023-04-17T17:41:24.040Z,77.23
2023-04-17T17:44:26.715Z,76.25
2023-04-17T17:47:29.821Z,77.08
2023-04-17T17:50:33.960Z,76.08
2023-04-17T17:53:36.770Z,76.87
2023-04-17T17:56:39.605Z,77.70
2023-04-17T17:59:42.327Z,78.57
2023-04-17T18:02:45.268Z,78.47
2023-04-17T18:05:49.604Z,77.95
2023-04-17T18:08:52.884Z,76.83
2023-04-17T18:11:55.901Z,77.30
2023-04-17T18:14:58.604Z,77.50
2023-04-17T18:18:01.592Z,76.76
2023-04-17T18:21:08.295Z,77.81
2023-04-17T18:24:11.140Z,78.56
2023-04-17T18:27:14.195Z,78.47
2023-04-17T18:30:17.219Z,77.93
2023-04-17T18:33:20.308Z,77.45
2023-04-17T18:36:24.387Z,79.81
2023-04-17T18:39:27.207Z,78.99
2023-04-17T18:42:29.913Z,78.41
2023-04-17T18:45:32.634Z,78.98
2023-04-17T18:48:35.525Z,77.50
2023-04-17T18:51:39.576Z,79.40
2023-04-17T18:54:42.321Z,79.52
2023-04-17T18:57:45.076Z,79.80
2023-04-17T19:00:47.827Z,79.49
2023-04-17T19:03:51.161Z,79.62
2023-04-17T19:06:55.310Z,79.58
2023-04-17T19:09:58.043Z,79.13
2023-04-17T19:13:00.738Z,78.50
2023-04-17T19:16:03.668Z,78.13
2023-04-17T19:19:06.652Z,79.54
2023-04-17T19:22:10.765Z,78.54
2023-04-17T19:25:13.680Z,79.57
2023-04-17T19:28:16.436Z,80.11
2023-04-17T19:31:19.303Z,79.05
2023-04-17T19:34:22.133Z,78.75
2023-04-17T19:37:26.449Z,78.88
2023-04-17T19:40:29.480Z,79.41
2023-04-17T19:43:32.185Z,79.30
2023-04-17T19:46:35.071Z,80.07
2023-04-17T19:49:37.752Z,78.84
2023-04-17T19:52:43.226Z,79.17
2023-04-17T19:55:45.925Z,79.03
2023-04-17T19:58:48.728Z,80.88
2023-04-17T20:01:52.216Z,79.45
2023-04-17T20:04:54.956Z,80.30
2023-04-17T20:07:59.306Z,80.31
2023-04-17T20:11:02.052Z,80.53
2023-04-17T20:14:05.606Z,79.37
2023-04-17T20:17:08.525Z,80.15
2023-04-17T20:20:12.738Z,79.37
2023-04-17T20:23:16.949Z,80.21
2023-04-17T20:26:19.645Z,79.37
2023-04-17T20:29:23.196Z,79.47
2023-04-17T20:32:25.957Z,80.46
2023-04-17T20:35:28.886Z,79.95
2023-04-17T20:38:33.029Z,79.78
2023-04-17T20:41:37.290Z,78.33
2023-04-17T20:44:41.812Z,79.89
2023-04-17T20:50:51.007Z,78.61
2023-04-17T20:53:55.752Z,79.20
2023-04-17T20:56:58.594Z,79.07
2023-04-17T21:00:01.337Z,79.46
2023-04-17T21:03:04.412Z,79.12
2023-04-17T21:06:07.593Z,78.53
2023-04-17T21:09:14.225Z,79.31
2023-04-17T21:12:17.049Z,77.83
2023-04-17T21:15:19.878Z,79.51
2023-04-17T21:18:22.874Z,78.60
2023-04-17T21:21:26.231Z,79.04
2023-04-17T21:24:30.601Z,78.46
2023-04-17T21:27:33.478Z,78.88
2023-04-17T21:30:37.077Z,78.05
2023-04-17T21:33:40.181Z,77.97
2023-04-17T21:36:42.868Z,78.81
2023-04-17T21:39:47.086Z,78.85
2023-04-17T21:42:49.749Z,77.74
2023-04-17T21:45:52.707Z,78.68
2023-04-17T21:48:56.022Z,79.06
2023-04-17T21:51:58.720Z,78.58
2023-04-17T21:55:05.679Z,78.03
2023-04-17T21:58:08.590Z,79.03
2023-04-17T22:01:11.638Z,77.88
2023-04-17T22:04:14.782Z,77.77
2023-04-17T22:07:18.591Z,78.69
2023-04-17T22:10:23.141Z,79.03
2023-04-17T22:13:26.275Z,78.95
2023-04-17T22:16:29.293Z,77.00
2023-04-17T22:19:32.242Z,78.41
2023-04-17T22:22:35.195Z,77.45
2023-04-17T22:25:39.455Z,77.12
2023-04-17T22:28:42.470Z,77.63
2023-04-17T22:31:45.316Z,78.12
2023-04-17T22:34:49.414Z,77.78
2023-04-17T22:37:52.369Z,77.62
2023-04-17T22:40:57.776Z,78.63
2023-04-17T22:44:04.528Z,78.40
2023-04-17T22:47:07.479Z,77.71
2023-04-17T22:50:11.900Z,78.96
2023-04-17T22:53:15.047Z,78.56
2023-04-17T22:56:19.399Z,78.92
2023-04-17T22:59:22.409Z,79.73
2023-04-17T23:02:26.033Z,78.42
2023-04-17T23:05:28.971Z,77.92
2023-04-17T23:08:32.301Z,77.89
2023-04-17T23:11:37.011Z,77.17
2023-04-17T23:14:39.938Z,77.93
2023-04-17T23:17:43.198Z,78.07
2023-04-17T23:20:46.511Z,78.95
2023-04-17T23:23:49.449Z,78.89
2023-04-17T23:26:55.178Z,77.50
2023-04-17T23:29:59.048Z,78.78
2023-04-17T23:33:01.927Z,78.14
2023-04-17T23:36:05.152Z,78.78
2023-04-17T23:39:08.094Z,78.59
2023-04-17T23:42:12.486Z,79.58
2023-04-17T23:45:15.598Z,78.19
2023-04-17T23:48:18.733Z,79.14
2023-04-17T23:51:22.139Z,78.83
2023-04-17T23:54:25.458Z,77.64
2023-04-17T23:57:30.948Z,78.37
